createdAt,value
2023-05-22T00:00:44.259Z,94646.00
2023-05-22T00:01:44.299Z,94648.00
2023-05-22T00:02:44.355Z,94648.00
2023-05-22T00:03:44.373Z,94648.00
2023-05-22T00:04:44.481Z,94648.00
2023-05-22T00:05:44.422Z,94648.00
2023-05-22T00:06:44.443Z,94648.00
2023-05-22T00:07:44.460Z,94644.00
2023-05-22T00:08:44.515Z,94644.00
2023-05-22T00:09:44.536Z,94644.00
2023-05-22T00:10:44.627Z,94635.00
2023-05-22T00:11:44.594Z,94635.00
2023-05-22T00:12:44.673Z,94635.00
2023-05-22T00:13:44.677Z,94635.00
2023-05-22T00:14:44.772Z,94633.00
2023-05-22T00:15:44.794Z,94633.00
2023-05-22T00:16:44.846Z,94631.00
2023-05-22T00:17:44.880Z,94629.00
2023-05-22T00:18:44.974Z,94629.00
2023-05-22T00:19:44.940Z,94631.00
2023-05-22T00:20:45.004Z,94633.00
2023-05-22T00:21:44.999Z,94631.00
2023-05-22T00:22:45.018Z,94625.00
2023-05-22T00:23:45.036Z,94629.00
2023-05-22T00:24:45.138Z,94627.00
2023-05-22T00:25:45.144Z,94627.00
2023-05-22T00:26:45.170Z,94633.00
2023-05-22T00:27:45.218Z,94633.00
2023-05-22T00:28:45.205Z,94629.00
2023-05-22T00:29:45.320Z,94631.00
2023-05-22T00:30:45.299Z,94635.00
2023-05-22T00:31:45.376Z,94637.00
2023-05-22T00:32:45.474Z,94633.00
2023-05-22T00:33:45.429Z,94633.00
2023-05-22T00:34:45.530Z,94631.00
2023-05-22T00:35:45.531Z,94631.00
2023-05-22T00:36:45.514Z,94633.00
2023-05-22T00:37:45.575Z,94635.00
2023-05-22T00:38:45.593Z,94644.00
2023-05-22T00:39:45.638Z,94635.00
2023-05-22T00:40:45.702Z,94644.00
2023-05-22T00:41:45.753Z,94637.00
2023-05-22T00:42:45.785Z,94633.00
2023-05-22T00:43:45.815Z,94631.00
2023-05-22T00:44:45.829Z,94635.00
2023-05-22T00:45:45.906Z,94635.00
2023-05-22T00:46:46.001Z,94635.00
2023-05-22T00:47:46.028Z,94635.00
2023-05-22T00:48:45.976Z,94644.00
2023-05-22T00:49:46.031Z,94637.00
2023-05-22T00:50:46.052Z,94635.00
2023-05-22T00:51:46.131Z,94637.00
2023-05-22T00:52:46.135Z,94637.00
2023-05-22T00:53:46.199Z,94637.00
2023-05-22T00:54:46.214Z,94635.00
2023-05-22T00:55:46.218Z,94635.00
2023-05-22T00:56:46.311Z,94637.00
2023-05-22T00:57:46.410Z,94637.00
2023-05-22T00:58:46.391Z,94637.00
2023-05-22T00:59:46.423Z,94637.00
2023-05-22T01:00:46.452Z,94635.00
2023-05-22T01:01:46.558Z,94633.00
2023-05-22T01:02:46.618Z,94637.00
2023-05-22T01:03:46.627Z,94633.00
2023-05-22T01:04:46.635Z,94633.00
2023-05-22T01:05:46.667Z,94633.00
2023-05-22T01:06:46.718Z,94644.00
2023-05-22T01:07:46.777Z,94646.00
2023-05-22T01:08:46.868Z,94644.00
2023-05-22T01:09:46.840Z,94637.00
2023-05-22T01:10:46.928Z,94646.00
2023-05-22T01:11:46.984Z,94644.00
2023-05-22T01:12:46.986Z,94644.00
2023-05-22T01:13:47.048Z,94646.00
2023-05-22T01:14:47.061Z,94644.00
2023-05-22T01:15:47.110Z,94646.00
2023-05-22T01:16:47.187Z,94652.00
2023-05-22T01:17:47.199Z,94648.00
2023-05-22T01:18:47.270Z,94656.00
2023-05-22T01:19:47.302Z,94654.00
2023-05-22T01:20:48.725Z,94656.00
2023-05-22T01:21:47.351Z,94654.00
2023-05-22T01:22:47.405Z,94654.00
2023-05-22T01:23:47.482Z,94652.00
2023-05-22T01:24:47.445Z,94656.00
2023-05-22T01:25:47.521Z,94656.00
2023-05-22T01:26:47.605Z,94654.00
2023-05-22T01:27:47.610Z,94654.00
2023-05-22T01:28:47.631Z,94652.00
2023-05-22T01:29:47.673Z,94654.00
2023-05-22T01:30:47.775Z,94656.00
2023-05-22T01:31:47.819Z,94652.00
2023-05-22T01:32:47.901Z,94658.00
2023-05-22T01:33:47.970Z,94658.00
2023-05-22T01:34:47.902Z,94658.00
2023-05-22T01:35:48.028Z,94662.00
2023-05-22T01:36:48.024Z,94660.00
2023-05-22T01:37:48.091Z,94660.00
2023-05-22T01:38:48.148Z,94660.00
2023-05-22T01:39:48.205Z,94664.00
2023-05-22T01:40:48.221Z,94668.00
2023-05-22T01:41:48.253Z,94666.00
2023-05-22T01:42:48.321Z,94668.00
2023-05-22T01:43:48.371Z,94666.00
2023-05-22T01:44:48.453Z,94668.00
2023-05-22T01:45:48.498Z,94668.00
2023-05-22T01:46:48.489Z,94670.00
2023-05-22T01:47:48.654Z,94670.00
2023-05-22T01:48:48.608Z,94672.00
2023-05-22T01:49:48.639Z,94672.00
2023-05-22T01:50:48.683Z,94674.00
2023-05-22T01:51:48.714Z,94672.00
2023-05-22T01:52:48.798Z,94676.00
2023-05-22T01:53:48.848Z,94678.00
2023-05-22T01:54:48.864Z,94672.00
2023-05-22T01:55:48.920Z,94674.00
2023-05-22T01:56:48.963Z,94676.00
2023-05-22T01:57:49.019Z,94674.00
2023-05-22T01:58:49.098Z,94676.00
2023-05-22T01:59:49.113Z,94676.00
2023-05-22T02:00:49.206Z,94676.00
2023-05-22T02:01:49.437Z,94678.00
2023-05-22T02:02:49.352Z,94674.00
2023-05-22T02:03:49.349Z,94676.00
2023-05-22T02:04:49.421Z,94678.00
2023-05-22T02:05:49.441Z,94678.00
2023-05-22T02:06:49.470Z,94678.00
2023-05-22T02:07:49.556Z,94676.00
2023-05-22T02:08:49.587Z,94678.00
2023-05-22T02:09:49.633Z,94680.00
2023-05-22T02:10:49.741Z,94678.00
2023-05-22T02:11:49.756Z,94680.00
2023-05-22T02:12:49.805Z,94680.00
2023-05-22T02:13:49.814Z,94682.00
2023-05-22T02:14:49.897Z,94680.00
2023-05-22T02:15:49.944Z,94682.00
2023-05-22T02:16:50.015Z,94682.00
2023-05-22T02:17:50.106Z,94678.00
2023-05-22T02:18:50.148Z,94676.00
2023-05-22T02:19:50.153Z,94680.00
2023-05-22T02:20:50.170Z,94678.00
2023-05-22T02:21:50.276Z,94674.00
2023-05-22T02:22:50.392Z,94674.00
2023-05-22T02:23:50.339Z,94670.00
2023-05-22T02:24:50.396Z,94676.00
2023-05-22T02:25:50.452Z,94672.00
2023-05-22T02:26:50.509Z,94670.00
2023-05-22T02:27:50.561Z,94670.00
2023-05-22T02:28:50.614Z,94672.00
2023-05-22T02:29:50.642Z,94666.00
2023-05-22T02:30:50.778Z,94668.00
2023-05-22T02:31:50.820Z,94672.00
2023-05-22T02:32:50.884Z,94668.00
2023-05-22T02:33:50.872Z,94670.00
2023-05-22T02:34:52.329Z,94670.00
2023-05-22T02:35:50.943Z,94668.00
2023-05-22T02:36:50.941Z,94670.00
2023-05-22T02:37:50.961Z,94672.00
2023-05-22T02:38:51.010Z,94672.00
2023-05-22T02:39:50.911Z,94670.00
2023-05-22T02:40:50.884Z,94672.00
2023-05-22T02:41:50.904Z,94672.00
2023-05-22T02:42:50.875Z,94674.00
2023-05-22T02:43:50.877Z,94672.00
2023-05-22T02:44:50.919Z,94674.00
2023-05-22T02:45:50.896Z,94672.00
2023-05-22T02:46:50.886Z,94674.00
2023-05-22T02:47:50.966Z,94676.00
2023-05-22T02:48:50.879Z,94676.00
2023-05-22T02:49:50.820Z,94672.00
2023-05-22T02:50:50.847Z,94672.00
2023-05-22T02:51:50.786Z,94672.00
2023-05-22T02:52:50.845Z,94676.00
2023-05-22T02:53:50.776Z,94676.00
2023-05-22T02:54:50.798Z,94678.00
2023-05-22T02:55:50.805Z,94676.00
2023-05-22T02:56:50.749Z,94678.00
2023-05-22T02:57:50.766Z,94676.00
2023-05-22T02:58:50.737Z,94674.00
2023-05-22T02:59:50.738Z,94680.00
2023-05-22T03:00:50.734Z,94682.00
2023-05-22T03:01:50.782Z,94680.00
2023-05-22T03:02:50.807Z,94682.00
2023-05-22T03:03:50.865Z,94682.00
2023-05-22T03:04:50.725Z,94680.00
2023-05-22T03:05:50.708Z,94678.00
2023-05-22T03:06:50.733Z,94678.00
2023-05-22T03:07:50.680Z,94678.00
2023-05-22T03:08:50.667Z,94682.00
2023-05-22T03:09:50.670Z,94678.00
2023-05-22T03:10:50.651Z,94680.00
2023-05-22T03:11:50.695Z,94682.00
2023-05-22T03:12:50.784Z,94683.00
2023-05-22T03:13:50.907Z,94683.00
2023-05-22T03:14:50.886Z,94682.00
2023-05-22T03:15:51.108Z,94683.00
2023-05-22T03:16:51.109Z,94683.00
2023-05-22T03:17:51.174Z,94682.00
2023-05-22T03:18:51.170Z,94680.00
2023-05-22T03:19:51.195Z,94674.00
2023-05-22T03:20:51.247Z,94676.00
2023-05-22T03:21:51.351Z,94676.00
2023-05-22T03:22:51.350Z,94676.00
2023-05-22T03:23:51.383Z,94678.00
2023-05-22T03:24:51.495Z,94680.00
2023-05-22T03:25:51.529Z,94678.00
2023-05-22T03:26:51.582Z,94678.00
2023-05-22T03:27:51.719Z,94680.00
2023-05-22T03:28:51.760Z,94678.00
2023-05-22T03:29:51.821Z,94680.00
2023-05-22T03:30:51.867Z,94682.00
2023-05-22T03:31:51.928Z,94680.00
2023-05-22T03:32:52.053Z,94676.00
2023-05-22T03:33:52.115Z,94680.00
2023-05-22T03:34:52.082Z,94678.00
2023-05-22T03:35:52.162Z,94674.00
2023-05-22T03:36:52.192Z,94676.00
2023-05-22T03:37:52.320Z,94674.00
2023-05-22T03:38:52.343Z,94674.00
2023-05-22T03:39:52.401Z,94674.00
2023-05-22T03:40:52.459Z,94672.00
2023-05-22T03:41:52.564Z,94674.00
2023-05-22T03:42:52.622Z,94674.00
2023-05-22T03:43:52.676Z,94676.00
2023-05-22T03:44:52.739Z,94668.00
2023-05-22T03:45:52.822Z,94672.00
2023-05-22T03:46:52.867Z,94674.00
2023-05-22T03:47:52.925Z,94678.00
2023-05-22T03:48:52.936Z,94676.00
2023-05-22T03:49:53.002Z,94676.00
2023-05-22T03:50:53.066Z,94674.00
2023-05-22T03:51:53.118Z,94674.00
2023-05-22T03:52:53.249Z,94672.00
2023-05-22T03:53:53.232Z,94674.00
2023-05-22T03:54:53.356Z,94674.00
2023-05-22T03:55:53.361Z,94676.00
2023-05-22T03:56:53.456Z,94678.00
2023-05-22T03:57:53.523Z,94676.00
2023-05-22T03:58:53.570Z,94678.00
2023-05-22T03:59:53.614Z,94682.00
2023-05-22T04:00:53.745Z,94683.00
2023-05-22T04:01:53.769Z,94682.00
2023-05-22T04:02:53.891Z,94678.00
2023-05-22T04:03:53.864Z,94678.00
2023-05-22T04:04:54.013Z,94682.00
2023-05-22T04:05:54.026Z,94680.00
2023-05-22T04:06:54.128Z,94680.00
2023-05-22T04:07:54.096Z,94682.00
2023-05-22T04:08:54.229Z,94682.00
2023-05-22T04:09:54.244Z,94682.00
2023-05-22T04:10:54.288Z,94683.00
2023-05-22T04:11:54.359Z,94685.00
2023-05-22T04:12:54.382Z,94682.00
2023-05-22T04:13:54.450Z,94682.00
2023-05-22T04:14:54.624Z,94685.00
2023-05-22T04:15:54.577Z,94683.00
2023-05-22T04:16:54.597Z,94687.00
2023-05-22T04:17:54.627Z,94685.00
2023-05-22T04:18:54.642Z,94685.00
2023-05-22T04:19:54.639Z,94687.00
2023-05-22T04:20:54.707Z,94685.00
2023-05-22T04:21:54.708Z,94687.00
2023-05-22T04:22:54.761Z,94687.00
2023-05-22T04:23:54.761Z,94685.00
2023-05-22T04:24:54.792Z,94687.00
2023-05-22T04:25:54.795Z,94689.00
2023-05-22T04:26:54.821Z,94685.00
2023-05-22T04:27:54.896Z,94689.00
2023-05-22T04:28:54.915Z,94691.00
2023-05-22T04:29:54.928Z,94695.00
2023-05-22T04:30:55.044Z,94695.00
2023-05-22T04:31:54.930Z,94699.00
2023-05-22T04:32:55.045Z,94697.00
2023-05-22T04:33:54.974Z,94697.00
2023-05-22T04:34:55.014Z,94699.00
2023-05-22T04:35:55.070Z,94699.00
2023-05-22T04:36:55.119Z,94701.00
2023-05-22T04:37:55.118Z,94699.00
2023-05-22T04:38:55.183Z,94699.00
2023-05-22T04:39:55.243Z,94703.00
2023-05-22T04:40:55.291Z,94703.00
2023-05-22T04:41:55.371Z,94701.00
2023-05-22T04:42:55.419Z,94705.00
2023-05-22T04:43:55.481Z,94703.00
2023-05-22T04:44:55.525Z,94701.00
2023-05-22T04:45:55.601Z,94701.00
2023-05-22T04:46:55.657Z,94703.00
2023-05-22T04:47:55.721Z,94705.00
2023-05-22T04:48:55.734Z,94701.00
2023-05-22T04:49:55.822Z,94705.00
2023-05-22T04:50:55.881Z,94703.00
2023-05-22T04:51:55.937Z,94705.00
2023-05-22T04:52:55.987Z,94701.00
2023-05-22T04:53:56.022Z,94703.00
2023-05-22T04:54:56.075Z,94705.00
2023-05-22T04:55:56.091Z,94707.00
2023-05-22T04:56:56.189Z,94707.00
2023-05-22T04:57:56.230Z,94709.00
2023-05-22T04:58:56.302Z,94707.00
2023-05-22T04:59:56.295Z,94705.00
2023-05-22T05:00:56.368Z,94703.00
2023-05-22T05:01:56.406Z,94707.00
2023-05-22T05:02:56.473Z,94709.00
2023-05-22T05:03:56.506Z,94711.00
2023-05-22T05:04:56.537Z,94709.00
2023-05-22T05:05:56.567Z,94709.00
2023-05-22T05:06:56.661Z,94711.00
2023-05-22T05:07:56.723Z,94713.00
2023-05-22T05:08:56.724Z,94711.00
2023-05-22T05:09:56.781Z,94713.00
2023-05-22T05:10:56.840Z,94711.00
2023-05-22T05:11:56.838Z,94711.00
2023-05-22T05:12:56.957Z,94711.00
2023-05-22T05:13:56.933Z,94711.00
2023-05-22T05:14:57.009Z,94709.00
2023-05-22T05:15:57.013Z,94709.00
2023-05-22T05:16:57.163Z,94711.00
2023-05-22T05:17:57.134Z,94711.00
2023-05-22T05:18:57.255Z,94709.00
2023-05-22T05:19:57.176Z,94711.00
2023-05-22T05:20:57.236Z,94713.00
2023-05-22T05:21:57.280Z,94711.00
2023-05-22T05:22:57.260Z,94713.00
2023-05-22T05:23:57.332Z,94711.00
2023-05-22T05:24:57.391Z,94713.00
2023-05-22T05:25:57.421Z,94713.00
2023-05-22T05:26:57.439Z,94715.00
2023-05-22T05:27:57.530Z,94715.00
2023-05-22T05:28:57.560Z,94713.00
2023-05-22T05:29:57.606Z,94713.00
2023-05-22T05:30:57.652Z,94717.00
2023-05-22T05:31:57.713Z,94713.00
2023-05-22T05:32:57.732Z,94707.00
2023-05-22T05:33:57.759Z,94707.00
2023-05-22T05:34:57.879Z,94709.00
2023-05-22T05:35:57.854Z,94709.00
2023-05-22T05:36:57.937Z,94711.00
2023-05-22T05:37:57.957Z,94707.00
2023-05-22T05:38:58.100Z,94707.00
2023-05-22T05:39:58.081Z,94709.00
2023-05-22T05:40:58.085Z,94707.00
2023-05-22T05:41:58.082Z,94701.00
2023-05-22T05:42:58.122Z,94703.00
2023-05-22T05:43:58.140Z,94699.00
2023-05-22T05:44:58.071Z,94695.00
2023-05-22T05:45:58.159Z,94697.00
2023-05-22T05:46:58.121Z,94697.00
2023-05-22T05:47:58.114Z,94699.00
2023-05-22T05:48:58.098Z,94699.00
2023-05-22T05:49:58.138Z,94699.00
2023-05-22T05:50:58.152Z,94699.00
2023-05-22T05:51:58.140Z,94697.00
2023-05-22T05:52:58.129Z,94699.00
2023-05-22T05:53:58.156Z,94703.00
2023-05-22T05:54:58.141Z,94699.00
2023-05-22T05:55:58.130Z,94701.00
2023-05-22T05:56:58.144Z,94701.00
2023-05-22T05:57:58.173Z,94703.00
2023-05-22T05:58:58.209Z,94705.00
2023-05-22T05:59:58.242Z,94705.00
2023-05-22T06:00:58.278Z,94707.00
2023-05-22T06:01:58.326Z,94707.00
2023-05-22T06:02:58.406Z,94713.00
2023-05-22T06:03:58.586Z,94713.00
2023-05-22T06:04:58.444Z,94715.00
2023-05-22T06:05:58.602Z,94711.00
2023-05-22T06:06:58.617Z,94709.00
2023-05-22T06:07:58.611Z,94713.00
2023-05-22T06:08:58.824Z,94717.00
2023-05-22T06:09:58.714Z,94713.00
2023-05-22T06:10:58.764Z,94715.00
2023-05-22T06:11:58.873Z,94715.00
2023-05-22T06:12:58.889Z,94713.00
2023-05-22T06:13:58.959Z,94715.00
2023-05-22T06:14:58.997Z,94713.00
2023-05-22T06:16:02.191Z,94711.00
2023-05-22T06:17:00.136Z,94713.00
2023-05-22T06:17:59.135Z,94713.00
2023-05-22T06:18:59.091Z,94709.00
2023-05-22T06:19:59.030Z,94713.00
2023-05-22T06:20:59.011Z,94711.00
2023-05-22T06:21:59.001Z,94713.00
2023-05-22T06:22:58.973Z,94711.00
2023-05-22T06:23:59.033Z,94711.00
2023-05-22T06:24:59.063Z,94711.00
2023-05-22T06:25:59.013Z,94711.00
2023-05-22T06:26:59.073Z,94713.00
2023-05-22T06:27:59.146Z,94709.00
2023-05-22T06:28:59.133Z,94711.00
2023-05-22T06:29:59.243Z,94709.00
2023-05-22T06:30:59.284Z,94711.00
2023-05-22T06:31:59.342Z,94711.00
2023-05-22T06:32:59.416Z,94709.00
2023-05-22T06:33:59.618Z,94707.00
2023-05-22T06:34:59.512Z,94711.00
2023-05-22T06:35:59.561Z,94711.00
2023-05-22T06:36:59.627Z,94711.00
2023-05-22T06:37:59.656Z,94711.00
2023-05-22T06:38:59.766Z,94711.00
2023-05-22T06:39:59.894Z,94709.00
2023-05-22T06:40:59.860Z,94705.00
2023-05-22T06:41:59.911Z,94707.00
2023-05-22T06:42:59.947Z,94705.00
2023-05-22T06:43:59.921Z,94703.00
2023-05-22T06:45:00.403Z,94703.00
2023-05-22T06:45:59.992Z,94701.00
2023-05-22T06:46:59.934Z,94697.00
2023-05-22T06:48:00.439Z,94697.00
2023-05-22T06:48:59.949Z,94697.00
2023-05-22T06:50:00.060Z,94695.00
2023-05-22T06:51:00.063Z,94695.00
2023-05-22T06:52:00.228Z,94699.00
2023-05-22T06:53:00.159Z,94699.00
2023-05-22T06:54:00.230Z,94695.00
2023-05-22T06:55:00.280Z,94695.00
2023-05-22T06:56:00.310Z,94695.00
2023-05-22T06:57:00.342Z,94691.00
2023-05-22T06:58:00.884Z,94693.00
2023-05-22T06:59:00.485Z,94695.00
2023-05-22T07:00:00.541Z,94691.00
2023-05-22T07:01:00.700Z,94693.00
2023-05-22T07:02:00.713Z,94689.00
2023-05-22T07:03:00.841Z,94685.00
2023-05-22T07:04:00.842Z,94687.00
2023-05-22T07:05:00.910Z,94687.00
2023-05-22T07:06:01.017Z,94685.00
2023-05-22T07:07:00.984Z,94685.00
2023-05-22T07:08:01.102Z,94683.00
2023-05-22T07:09:01.121Z,94683.00
2023-05-22T07:10:01.150Z,94683.00
2023-05-22T07:11:01.230Z,94683.00
2023-05-22T07:12:01.276Z,94682.00
2023-05-22T07:13:01.339Z,94683.00
2023-05-22T07:14:01.385Z,94680.00
2023-05-22T07:15:01.455Z,94682.00
2023-05-22T07:16:01.549Z,94682.00
2023-05-22T07:17:01.535Z,94678.00
2023-05-22T07:18:01.747Z,94680.00
2023-05-22T07:19:01.738Z,94678.00
2023-05-22T07:20:01.753Z,94680.00
2023-05-22T07:21:01.711Z,94682.00
2023-05-22T07:22:01.803Z,94680.00
2023-05-22T07:23:01.824Z,94678.00
2023-05-22T07:24:01.820Z,94678.00
2023-05-22T07:25:01.891Z,94678.00
2023-05-22T07:26:01.903Z,94676.00
2023-05-22T07:27:01.934Z,94676.00
2023-05-22T07:28:01.944Z,94676.00
2023-05-22T07:29:02.430Z,94674.00
2023-05-22T07:30:02.432Z,94670.00
2023-05-22T07:31:02.079Z,94672.00
2023-05-22T07:32:02.235Z,94674.00
2023-05-22T07:33:02.520Z,94672.00
2023-05-22T07:34:02.236Z,94672.00
2023-05-22T07:35:02.457Z,94676.00
2023-05-22T07:36:02.321Z,94672.00
2023-05-22T07:37:02.383Z,94670.00
2023-05-22T07:38:02.416Z,94664.00
2023-05-22T07:39:02.496Z,94666.00
2023-05-22T07:40:02.498Z,94662.00
2023-05-22T07:41:02.591Z,94662.00
2023-05-22T07:42:02.636Z,94658.00
2023-05-22T07:43:02.674Z,94656.00
2023-05-22T07:44:02.749Z,94658.00
2023-05-22T07:45:02.826Z,94654.00
2023-05-22T07:46:02.945Z,94650.00
2023-05-22T07:47:02.964Z,94652.00
2023-05-22T07:48:03.011Z,94652.00
2023-05-22T07:49:03.102Z,94650.00
2023-05-22T07:50:03.401Z,94652.00
2023-05-22T07:51:03.138Z,94650.00
2023-05-22T07:52:03.212Z,94648.00
2023-05-22T07:53:03.243Z,94648.00
2023-05-22T07:54:03.282Z,94648.00
2023-05-22T07:55:03.350Z,94646.00
2023-05-22T07:56:03.395Z,94644.00
2023-05-22T07:57:03.428Z,94635.00
2023-05-22T07:58:03.451Z,94633.00
2023-05-22T07:59:03.541Z,94635.00
2023-05-22T08:00:03.519Z,94635.00
2023-05-22T08:01:03.568Z,94633.00
2023-05-22T08:02:03.622Z,94633.00
2023-05-22T08:03:03.779Z,94631.00
2023-05-22T08:04:03.858Z,94627.00
2023-05-22T08:05:03.982Z,94623.00
2023-05-22T08:06:03.790Z,94627.00
2023-05-22T08:07:03.780Z,94625.00
2023-05-22T08:08:03.778Z,94625.00
2023-05-22T08:09:03.812Z,94625.00
2023-05-22T08:10:03.878Z,94623.00
2023-05-22T08:11:04.645Z,94619.00
2023-05-22T08:12:03.952Z,94621.00
2023-05-22T08:13:03.951Z,94619.00
2023-05-22T08:14:03.969Z,94617.00
2023-05-22T08:15:04.012Z,94615.00
2023-05-22T08:16:03.917Z,94615.00
2023-05-22T08:17:03.937Z,94615.00
2023-05-22T08:18:03.917Z,94615.00
2023-05-22T08:19:03.942Z,94613.00
2023-05-22T08:20:04.039Z,94613.00
2023-05-22T08:21:03.871Z,94611.00
2023-05-22T08:22:03.844Z,94611.00
2023-05-22T08:23:03.867Z,94609.00
2023-05-22T08:24:03.859Z,94609.00
2023-05-22T08:25:03.918Z,94609.00
2023-05-22T08:26:03.846Z,94609.00
2023-05-22T08:27:03.848Z,94611.00
2023-05-22T08:28:04.466Z,94609.00
2023-05-22T08:29:03.807Z,94609.00
2023-05-22T08:30:03.931Z,94607.00
2023-05-22T08:31:03.930Z,94607.00
2023-05-22T08:32:04.659Z,94607.00
2023-05-22T08:33:03.823Z,94603.00
2023-05-22T08:34:03.748Z,94605.00
2023-05-22T08:35:03.774Z,94605.00
2023-05-22T08:36:03.729Z,94601.00
2023-05-22T08:37:03.781Z,94603.00
2023-05-22T08:38:03.722Z,94603.00
2023-05-22T08:39:03.757Z,94601.00
2023-05-22T08:40:03.731Z,94595.00
2023-05-22T08:41:03.787Z,94595.00
2023-05-22T08:42:03.697Z,94593.00
2023-05-22T08:43:03.697Z,94591.00
2023-05-22T08:44:03.691Z,94593.00
2023-05-22T08:45:03.658Z,94587.00
2023-05-22T08:46:03.942Z,94589.00
2023-05-22T08:47:03.666Z,94587.00
2023-05-22T08:48:04.019Z,94585.00
2023-05-22T08:49:03.624Z,94583.00
2023-05-22T08:50:03.650Z,94582.00
2023-05-22T08:51:03.640Z,94580.00
2023-05-22T08:52:03.653Z,94580.00
2023-05-22T08:53:03.638Z,94578.00
2023-05-22T08:54:03.633Z,94574.00
2023-05-22T08:55:03.642Z,94572.00
2023-05-22T08:56:03.638Z,94572.00
2023-05-22T08:57:03.640Z,94572.00
2023-05-22T08:58:04.010Z,94568.00
2023-05-22T08:59:03.682Z,94564.00
2023-05-22T09:00:03.773Z,94566.00
2023-05-22T09:01:03.817Z,94564.00
2023-05-22T09:02:04.470Z,94562.00
2023-05-22T09:03:04.353Z,94562.00
2023-05-22T09:04:03.995Z,94566.00
2023-05-22T09:05:03.768Z,94576.00
2023-05-22T09:06:03.771Z,94560.00
2023-05-22T09:07:03.959Z,94558.00
2023-05-22T09:08:16.191Z,94558.00
2023-05-22T09:09:04.775Z,94554.00
2023-05-22T09:10:03.754Z,94552.00
2023-05-22T09:11:03.720Z,94556.00
2023-05-22T09:12:03.704Z,94556.00
2023-05-22T09:13:03.740Z,94550.00
2023-05-22T09:14:03.704Z,94550.00
2023-05-22T09:15:03.738Z,94548.00
2023-05-22T09:16:03.686Z,94548.00
2023-05-22T09:17:04.024Z,94548.00
2023-05-22T09:18:03.698Z,94544.00
2023-05-22T09:19:03.713Z,94544.00
2023-05-22T09:20:03.657Z,94541.00
2023-05-22T09:21:04.985Z,94541.00
2023-05-22T09:22:04.633Z,94541.00
2023-05-22T09:23:03.953Z,94539.00
2023-05-22T09:24:03.632Z,94537.00
2023-05-22T09:25:03.769Z,94537.00
2023-05-22T09:26:03.651Z,94539.00
2023-05-22T09:27:03.957Z,94539.00
2023-05-22T09:28:03.617Z,94539.00
2023-05-22T09:29:03.988Z,94539.00
2023-05-22T09:30:03.971Z,94539.00
2023-05-22T09:31:04.477Z,94537.00
2023-05-22T09:32:03.571Z,94537.00
2023-05-22T09:33:03.590Z,94535.00
2023-05-22T09:34:03.586Z,94535.00
2023-05-22T09:35:04.016Z,94537.00
2023-05-22T09:36:03.583Z,94533.00
2023-05-22T09:37:03.524Z,94529.00
2023-05-22T09:38:03.539Z,94531.00
2023-05-22T09:39:03.535Z,94527.00
2023-05-22T09:40:03.977Z,94529.00
2023-05-22T09:41:03.949Z,94529.00
2023-05-22T09:42:03.606Z,94527.00
2023-05-22T09:43:03.500Z,94529.00
2023-05-22T09:44:03.518Z,94525.00
2023-05-22T09:45:03.479Z,94527.00
2023-05-22T09:46:03.485Z,94525.00
2023-05-22T09:47:03.494Z,94525.00
2023-05-22T09:48:03.508Z,94521.00
2023-05-22T09:49:03.459Z,94523.00
2023-05-22T09:50:03.460Z,94521.00
2023-05-22T09:51:03.449Z,94521.00
2023-05-22T09:52:03.480Z,94521.00
2023-05-22T09:53:03.426Z,94519.00
2023-05-22T09:54:03.488Z,94519.00
2023-05-22T09:55:03.433Z,94517.00
2023-05-22T09:56:03.382Z,94515.00
2023-05-22T09:57:03.386Z,94519.00
2023-05-22T09:58:03.370Z,94515.00
2023-05-22T09:59:03.370Z,94517.00
2023-05-22T10:00:03.383Z,94515.00
2023-05-22T10:01:03.370Z,94515.00
2023-05-22T10:02:03.503Z,94515.00
2023-05-22T10:03:03.575Z,94515.00
2023-05-22T10:04:03.514Z,94517.00
2023-05-22T10:05:03.547Z,94513.00
2023-05-22T10:06:03.555Z,94513.00
2023-05-22T10:07:03.780Z,94513.00
2023-05-22T10:08:03.627Z,94513.00
2023-05-22T10:09:03.629Z,94511.00
2023-05-22T10:10:03.642Z,94507.00
2023-05-22T10:11:03.700Z,94507.00
2023-05-22T10:12:03.704Z,94507.00
2023-05-22T10:13:03.770Z,94501.00
2023-05-22T10:14:03.770Z,94505.00
2023-05-22T10:15:03.775Z,94501.00
2023-05-22T10:16:03.864Z,94499.00
2023-05-22T10:17:03.836Z,94499.00
2023-05-22T10:18:03.851Z,94495.00
2023-05-22T10:19:03.871Z,94493.00
2023-05-22T10:20:04.013Z,94491.00
2023-05-22T10:21:03.913Z,94489.00
2023-05-22T10:22:03.968Z,94488.00
2023-05-22T10:23:04.091Z,94486.00
2023-05-22T10:24:04.003Z,94489.00
2023-05-22T10:25:04.526Z,94486.00
2023-05-22T10:26:04.063Z,94484.00
2023-05-22T10:27:04.106Z,94486.00
2023-05-22T10:28:04.120Z,94486.00
2023-05-22T10:29:04.187Z,94486.00
2023-05-22T10:30:04.497Z,94486.00
2023-05-22T10:31:04.200Z,94486.00
2023-05-22T10:32:04.260Z,94484.00
2023-05-22T10:33:04.386Z,94482.00
2023-05-22T10:34:04.349Z,94484.00
2023-05-22T10:35:04.333Z,94482.00
2023-05-22T10:36:04.373Z,94482.00
2023-05-22T10:37:16.144Z,94476.00
2023-05-22T10:38:05.589Z,94478.00
2023-05-22T10:39:04.402Z,94474.00
2023-05-22T10:40:04.412Z,94474.00
2023-05-22T10:41:04.505Z,94472.00
2023-05-22T10:42:04.375Z,94466.00
2023-05-22T10:43:04.533Z,94468.00
2023-05-22T10:44:04.370Z,94468.00
2023-05-22T10:45:04.348Z,94466.00
2023-05-22T10:46:04.461Z,94464.00
2023-05-22T10:47:04.357Z,94462.00
2023-05-22T10:48:04.554Z,94462.00
2023-05-22T10:49:04.302Z,94458.00
2023-05-22T10:50:04.315Z,94458.00
2023-05-22T10:51:04.283Z,94456.00
2023-05-22T10:52:04.278Z,94454.00
2023-05-22T10:53:04.280Z,94452.00
2023-05-22T10:54:04.369Z,94454.00
2023-05-22T10:55:04.244Z,94454.00
2023-05-22T10:56:04.248Z,94450.00
2023-05-22T10:57:04.262Z,94448.00
2023-05-22T10:58:05.104Z,94448.00
2023-05-22T10:59:04.230Z,94446.00
2023-05-22T11:00:04.208Z,94444.00
2023-05-22T11:01:04.216Z,94442.00
2023-05-22T11:02:04.250Z,94444.00
2023-05-22T11:03:13.896Z,94442.00
2023-05-22T11:04:05.201Z,94439.00
2023-05-22T11:05:04.273Z,94439.00
2023-05-22T11:06:04.520Z,94437.00
2023-05-22T11:07:04.194Z,94437.00
2023-05-22T11:08:04.180Z,94435.00
2023-05-22T11:09:04.124Z,94433.00
2023-05-22T11:10:04.221Z,94433.00
2023-05-22T11:11:04.100Z,94433.00
2023-05-22T11:12:04.160Z,94431.00
2023-05-22T11:13:04.085Z,94435.00
2023-05-22T11:14:04.100Z,94433.00
2023-05-22T11:15:04.102Z,94433.00
2023-05-22T11:16:04.143Z,94431.00
2023-05-22T11:17:04.130Z,94435.00
2023-05-22T11:18:04.165Z,94431.00
2023-05-22T11:19:21.157Z,94433.00
2023-05-22T11:20:05.343Z,94429.00
2023-05-22T11:21:04.075Z,94429.00
2023-05-22T11:22:04.054Z,94425.00
2023-05-22T11:23:04.053Z,94425.00
2023-05-22T11:24:04.542Z,94423.00
2023-05-22T11:25:04.101Z,94423.00
2023-05-22T11:26:04.172Z,94423.00
2023-05-22T11:27:04.146Z,94423.00
2023-05-22T11:28:04.161Z,94423.00
2023-05-22T11:29:04.270Z,94421.00
2023-05-22T11:30:04.279Z,94421.00
2023-05-22T11:31:04.219Z,94421.00
2023-05-22T11:32:04.275Z,94421.00
2023-05-22T11:33:04.310Z,94421.00
2023-05-22T11:34:04.307Z,94421.00
2023-05-22T11:35:04.350Z,94419.00
2023-05-22T11:36:04.383Z,94419.00
2023-05-22T11:37:04.456Z,94419.00
2023-05-22T11:38:04.511Z,94413.00
2023-05-22T11:39:04.545Z,94417.00
2023-05-22T11:40:04.581Z,94417.00
2023-05-22T11:41:04.658Z,94407.00
2023-05-22T11:42:04.785Z,94409.00
2023-05-22T11:43:04.740Z,94405.00
2023-05-22T11:44:04.793Z,94407.00
2023-05-22T11:45:04.867Z,94405.00